createdAt,value
2022-09-17T00:01:21.370Z,96877.28
2022-09-17T00:03:52.423Z,96874.94
2022-09-17T00:06:19.451Z,96884.50
2022-09-17T00:08:45.932Z,96877.50
2022-09-17T00:11:13.901Z,96876.72
2022-09-17T00:13:40.749Z,96873.16
2022-09-17T00:16:07.766Z,96867.72
2022-09-17T00:18:36.850Z,96875.94
2022-09-17T00:21:03.489Z,96865.69
2022-09-17T00:23:29.897Z,96858.56
2022-09-17T00:25:56.383Z,96856.38
2022-09-17T00:28:22.812Z,96845.00
2022-09-17T00:30:49.235Z,96848.75
2022-09-17T00:33:17.101Z,96846.91
2022-09-17T00:35:44.462Z,96847.38
2022-09-17T00:38:11.363Z,96839.72
2022-09-17T00:40:37.889Z,96835.63
2022-09-17T00:43:04.745Z,96834.56
2022-09-17T00:45:32.149Z,96833.88
2022-09-17T00:48:00.308Z,96834.47
2022-09-17T00:50:38.362Z,96833.56
2022-09-17T00:53:13.574Z,96818.53
2022-09-17T00:55:42.526Z,96819.28
2022-09-17T00:58:10.811Z,96820.66
2022-09-17T01:00:37.759Z,96823.47
2022-09-17T01:03:04.821Z,96822.72
2022-09-17T01:05:31.217Z,96818.66
2022-09-17T01:08:01.593Z,96806.97
2022-09-17T01:10:28.017Z,96814.59
2022-09-17T01:13:00.583Z,96819.06
2022-09-17T01:15:35.338Z,96823.22
2022-09-17T01:18:14.594Z,96813.69
2022-09-17T01:21:03.142Z,96804.88
2022-09-17T01:23:29.530Z,96810.09
2022-09-17T01:26:08.114Z,96812.47
2022-09-17T01:28:34.594Z,96817.81
2022-09-17T01:31:01.237Z,96806.97
2022-09-17T01:33:34.848Z,96796.59
2022-09-17T01:36:20.344Z,96787.06
2022-09-17T01:39:06.568Z,96799.31
2022-09-17T01:41:48.236Z,96785.38
2022-09-17T01:44:28.236Z,96781.31
2022-09-17T01:46:58.160Z,96774.13
2022-09-17T01:49:25.867Z,96773.97
2022-09-17T01:51:54.761Z,96774.19
2022-09-17T01:54:25.229Z,96771.25
2022-09-17T01:56:58.310Z,96787.66
2022-09-17T01:59:24.711Z,96799.16
2022-09-17T02:01:58.041Z,96806.25
2022-09-17T02:04:34.650Z,96817.09
2022-09-17T02:07:03.974Z,96806.56
2022-09-17T02:09:34.914Z,96812.19
2022-09-17T02:12:04.000Z,96813.13
2022-09-17T02:14:39.626Z,96825.56
2022-09-17T02:17:10.750Z,96824.25
2022-09-17T02:19:38.579Z,96823.13
2022-09-17T02:22:10.899Z,96811.97
2022-09-17T02:24:56.708Z,96801.13
2022-09-17T02:27:30.423Z,96784.91
2022-09-17T02:29:56.902Z,96793.25
2022-09-17T02:32:24.833Z,96796.50
2022-09-17T02:34:51.365Z,96781.94
2022-09-17T02:37:17.895Z,96778.28
2022-09-17T02:39:44.478Z,96789.19
2022-09-17T02:42:10.868Z,96786.97
2022-09-17T02:44:54.105Z,96777.78
2022-09-17T02:47:34.594Z,96772.38
2022-09-17T02:50:10.041Z,96770.22
2022-09-17T02:52:46.112Z,96762.94
2022-09-17T02:55:17.525Z,96754.19
2022-09-17T02:58:04.214Z,96756.44
2022-09-17T03:00:31.189Z,96755.81
2022-09-17T03:02:59.420Z,96752.13
2022-09-17T03:05:27.740Z,96741.09
2022-09-17T03:07:59.123Z,96739.63
2022-09-17T03:10:26.053Z,96734.38
2022-09-17T03:12:53.731Z,96737.22
2022-09-17T03:15:20.207Z,96731.44
2022-09-17T03:17:50.089Z,96734.00
2022-09-17T03:20:19.831Z,96742.41
2022-09-17T03:22:47.187Z,96740.81
2022-09-17T03:25:13.853Z,96741.22
2022-09-17T03:27:40.401Z,96744.97
2022-09-17T03:30:07.663Z,96746.88
2022-09-17T03:32:34.108Z,96752.97
2022-09-17T03:35:00.570Z,96755.50
2022-09-17T03:37:30.983Z,96763.84
2022-09-17T03:39:59.280Z,96756.94
2022-09-17T03:42:25.785Z,96747.72
2022-09-17T03:44:52.206Z,96749.25
2022-09-17T03:47:18.697Z,96753.03
2022-09-17T03:49:45.113Z,96745.91
2022-09-17T03:52:11.551Z,96749.50
2022-09-17T03:54:38.198Z,96757.31
2022-09-17T03:57:04.730Z,96768.81
2022-09-17T03:59:31.569Z,96764.72
2022-09-17T04:01:58.158Z,96762.69
2022-09-17T04:04:25.161Z,96762.91
2022-09-17T04:06:51.581Z,96764.31
2022-09-17T04:09:18.025Z,96765.75
2022-09-17T04:11:46.286Z,96761.03
2022-09-17T04:14:12.872Z,96748.34
2022-09-17T04:16:39.301Z,96731.69
2022-09-17T04:19:05.753Z,96732.16
2022-09-17T04:21:32.198Z,96729.81
2022-09-17T04:23:59.136Z,96722.94
2022-09-17T04:26:25.568Z,96726.22
2022-09-17T04:28:52.050Z,96712.84
2022-09-17T04:31:18.505Z,96726.00
2022-09-17T04:33:45.009Z,96731.41
2022-09-17T04:36:11.490Z,96752.09
2022-09-17T04:38:37.902Z,96744.53
2022-09-17T04:41:06.837Z,96733.25
2022-09-17T04:43:33.287Z,96763.69
2022-09-17T04:45:59.742Z,96780.66
2022-09-17T04:48:26.246Z,96773.38
2022-09-17T04:50:52.647Z,96784.66
2022-09-17T04:53:19.154Z,96761.44
2022-09-17T04:55:45.606Z,96753.16
2022-09-17T04:58:12.187Z,96760.31
2022-09-17T05:00:39.050Z,96767.44
2022-09-17T05:03:05.553Z,96771.66
2022-09-17T05:05:32.001Z,96767.53
2022-09-17T05:07:58.415Z,96757.06
2022-09-17T05:10:25.465Z,96741.56
2022-09-17T05:12:55.843Z,96729.81
2022-09-17T05:15:23.105Z,96724.81
2022-09-17T05:17:49.643Z,96727.75
2022-09-17T05:20:16.670Z,96732.59
2022-09-17T05:22:44.461Z,96734.50
2022-09-17T05:25:11.540Z,96729.94
2022-09-17T05:27:38.678Z,96739.00
2022-09-17T05:30:05.536Z,96752.69
2022-09-17T05:32:32.019Z,96749.16
2022-09-17T05:35:00.653Z,96743.75
2022-09-17T05:37:29.326Z,96719.56
2022-09-17T05:39:55.803Z,96737.09
2022-09-17T05:42:22.327Z,96756.59
2022-09-17T05:44:48.907Z,96760.59
2022-09-17T05:47:15.418Z,96758.41
2022-09-17T05:49:41.975Z,96758.78
2022-09-17T05:52:08.441Z,96751.88
2022-09-17T05:54:34.906Z,96757.03
2022-09-17T05:57:01.791Z,96753.41
2022-09-17T05:59:28.226Z,96756.50
2022-09-17T06:01:54.786Z,96756.69
2022-09-17T06:04:21.223Z,96754.50
2022-09-17T06:06:47.691Z,96743.94
2022-09-17T06:09:14.176Z,96746.63
2022-09-17T06:11:40.606Z,96748.72
2022-09-17T06:14:07.075Z,96758.13
2022-09-17T06:16:33.573Z,96752.69
2022-09-17T06:19:00.084Z,96747.19
2022-09-17T06:21:26.611Z,96738.28
2022-09-17T06:23:53.231Z,96746.53
2022-09-17T06:26:19.657Z,96751.66
2022-09-17T06:28:46.278Z,96760.88
2022-09-17T06:31:13.386Z,96745.25
2022-09-17T06:33:40.196Z,96750.00
2022-09-17T06:36:13.062Z,96757.88
2022-09-17T06:38:40.089Z,96759.97
2022-09-17T06:41:06.564Z,96760.13
2022-09-17T06:43:33.059Z,96774.84
2022-09-17T06:46:00.585Z,96780.06
2022-09-17T06:48:27.987Z,96783.69
2022-09-17T06:50:54.996Z,96791.81
2022-09-17T06:53:21.779Z,96801.31
2022-09-17T06:55:48.269Z,96793.91
2022-09-17T06:58:14.888Z,96798.50
2022-09-17T07:00:41.596Z,96790.00
2022-09-17T07:03:09.046Z,96788.03
2022-09-17T07:05:35.530Z,96788.31
2022-09-17T07:08:03.229Z,96776.97
2022-09-17T07:10:30.042Z,96775.50
2022-09-17T07:12:56.750Z,96783.56
2022-09-17T07:15:23.249Z,96780.03
2022-09-17T07:17:49.674Z,96772.97
2022-09-17T07:20:16.294Z,96773.44
2022-09-17T07:22:42.748Z,96780.03
2022-09-17T07:25:10.022Z,96785.19
2022-09-17T07:27:36.430Z,96799.69
2022-09-17T07:30:03.293Z,96796.56
2022-09-17T07:32:31.159Z,96803.38
2022-09-17T07:34:57.639Z,96808.97
2022-09-17T07:37:24.105Z,96807.72
2022-09-17T07:39:50.555Z,96811.44
2022-09-17T07:42:17.008Z,96813.41
2022-09-17T07:44:44.110Z,96826.78
2022-09-17T07:47:10.582Z,96838.72
2022-09-17T07:49:37.040Z,96833.06
2022-09-17T07:52:06.363Z,96831.38
2022-09-17T07:54:39.073Z,96832.78
2022-09-17T07:57:05.518Z,96825.81
2022-09-17T07:59:32.170Z,96824.94
2022-09-17T08:01:58.738Z,96823.03
2022-09-17T08:04:25.500Z,96815.44
2022-09-17T08:06:51.944Z,96821.84
2022-09-17T08:09:18.704Z,96824.53
2022-09-17T08:11:55.475Z,96821.06
2022-09-17T08:14:26.959Z,96824.53
2022-09-17T08:16:55.089Z,96819.50
2022-09-17T08:19:22.401Z,96826.66
2022-09-17T08:21:48.862Z,96838.97
2022-09-17T08:24:15.513Z,96851.94
2022-09-17T08:26:41.976Z,96857.53
2022-09-17T08:29:08.538Z,96877.09
2022-09-17T08:31:35.227Z,96887.19
2022-09-17T08:34:01.795Z,96886.28
2022-09-17T08:36:28.598Z,96890.16
2022-09-17T08:38:55.925Z,96895.94
2022-09-17T08:41:22.664Z,96898.75
2022-09-17T08:43:55.225Z,96895.31
2022-09-17T08:46:22.496Z,96869.78
2022-09-17T08:48:56.733Z,96850.72
2022-09-17T08:51:25.973Z,96829.28
2022-09-17T08:54:11.194Z,96817.50
2022-09-17T08:56:38.571Z,96822.78
2022-09-17T08:59:31.307Z,96830.84
2022-09-17T09:02:17.068Z,96838.63
2022-09-17T09:04:43.651Z,96845.91
2022-09-17T09:07:17.383Z,96847.47
2022-09-17T09:09:51.613Z,96842.59
2022-09-17T09:12:26.534Z,96840.63
2022-09-17T09:15:03.296Z,96845.69
2022-09-17T09:17:34.288Z,96854.63
2022-09-17T09:20:00.817Z,96856.50
2022-09-17T09:22:43.665Z,96874.03
2022-09-17T09:25:23.841Z,96870.00
2022-09-17T09:27:50.282Z,96859.56
2022-09-17T09:30:18.267Z,96861.72
2022-09-17T09:32:47.442Z,96850.78
2022-09-17T09:35:28.127Z,96857.25
2022-09-17T09:37:57.663Z,96848.59
2022-09-17T09:40:33.795Z,96836.25
2022-09-17T09:43:01.844Z,96806.50
2022-09-17T09:45:45.448Z,96806.47
2022-09-17T09:48:30.593Z,96817.09
2022-09-17T09:51:07.482Z,96814.16
2022-09-17T09:53:52.848Z,96804.25
2022-09-17T09:56:38.503Z,96792.19
2022-09-17T09:59:08.665Z,96787.22
2022-09-17T10:01:39.685Z,96795.66
2022-09-17T10:04:15.766Z,96804.09
2022-09-17T10:06:42.338Z,96810.75
2022-09-17T10:09:10.094Z,96802.22
2022-09-17T10:11:36.777Z,96799.91
2022-09-17T10:14:23.519Z,96805.69
2022-09-17T10:16:50.182Z,96800.31
2022-09-17T10:19:25.074Z,96785.41
2022-09-17T10:21:52.422Z,96788.69
2022-09-17T10:24:26.873Z,96790.06
2022-09-17T10:27:01.285Z,96781.28
2022-09-17T10:29:28.046Z,96786.97
2022-09-17T10:31:55.748Z,96791.53
2022-09-17T10:34:27.157Z,96809.81
2022-09-17T10:36:55.408Z,96824.53
2022-09-17T10:39:27.670Z,96827.88
2022-09-17T10:42:13.726Z,96814.91
2022-09-17T10:44:50.481Z,96825.72
2022-09-17T10:47:21.824Z,96817.38
2022-09-17T10:49:50.170Z,96812.47
2022-09-17T10:52:27.293Z,96807.53
2022-09-17T10:55:12.510Z,96817.81
2022-09-17T10:57:38.951Z,96801.75
2022-09-17T11:00:18.947Z,96811.56
2022-09-17T11:02:51.149Z,96815.72
2022-09-17T11:05:17.626Z,96804.72
2022-09-17T11:07:57.121Z,96801.78
2022-09-17T11:10:33.191Z,96798.44
2022-09-17T11:12:59.616Z,96789.25
2022-09-17T11:15:40.075Z,96773.75
2022-09-17T11:18:32.793Z,96785.66
2022-09-17T11:21:11.426Z,96769.19
2022-09-17T11:23:53.461Z,96771.66
2022-09-17T11:26:19.869Z,96772.97
2022-09-17T11:29:00.922Z,96769.19
2022-09-17T11:31:30.563Z,96777.56
2022-09-17T11:34:12.198Z,96786.94
2022-09-17T11:36:46.091Z,96789.66
2022-09-17T11:39:18.898Z,96785.06
2022-09-17T11:41:46.706Z,96772.53
2022-09-17T11:44:17.066Z,96742.81
2022-09-17T11:46:43.520Z,96726.31
2022-09-17T11:49:25.417Z,96701.16
2022-09-17T11:51:58.042Z,96712.38
2022-09-17T11:54:31.105Z,96716.50
2022-09-17T11:57:12.209Z,96716.50
2022-09-17T11:59:43.737Z,96710.88
2022-09-17T12:02:39.239Z,96711.50
2022-09-17T12:05:10.674Z,96702.91
2022-09-17T12:07:56.015Z,96702.34
2022-09-17T12:10:25.514Z,96693.53
2022-09-17T12:13:12.206Z,96693.50
2022-09-17T12:15:40.302Z,96700.66
2022-09-17T12:18:32.370Z,96716.97
2022-09-17T12:21:01.955Z,96716.94
2022-09-17T12:23:40.322Z,96721.97
2022-09-17T12:26:13.518Z,96718.44
2022-09-17T12:29:00.392Z,96729.91
2022-09-17T12:31:26.992Z,96716.56
2022-09-17T12:33:59.691Z,96711.94
2022-09-17T12:36:52.770Z,96701.69
2022-09-17T12:39:26.115Z,96691.03
2022-09-17T12:42:01.932Z,96674.53
2022-09-17T12:44:38.790Z,96670.59
2022-09-17T12:47:33.452Z,96673.50
2022-09-17T12:50:12.047Z,96704.69
2022-09-17T12:52:47.794Z,96715.19
2022-09-17T12:55:14.186Z,96728.97
2022-09-17T12:57:49.527Z,96746.03
2022-09-17T13:00:16.598Z,96738.16
2022-09-17T13:02:49.553Z,96735.72
2022-09-17T13:05:36.341Z,96736.56
2022-09-17T13:08:21.031Z,96740.53
2022-09-17T13:10:57.697Z,96736.31
2022-09-17T13:13:43.014Z,96731.44
2022-09-17T13:16:20.092Z,96735.13
2022-09-17T13:19:17.059Z,96735.50
2022-09-17T13:21:51.575Z,96743.00
2022-09-17T13:24:24.965Z,96737.34
2022-09-17T13:26:53.913Z,96743.50
2022-09-17T13:29:39.233Z,96742.63
2022-09-17T13:32:05.650Z,96751.56
2022-09-17T13:34:32.214Z,96755.41
2022-09-17T13:36:59.899Z,96765.06
2022-09-17T13:39:44.874Z,96770.31
2022-09-17T13:42:14.916Z,96776.75
2022-09-17T13:44:43.733Z,96774.50
2022-09-17T13:47:15.298Z,96765.28
2022-09-17T13:49:47.207Z,96755.47
2022-09-17T13:52:13.686Z,96741.84
2022-09-17T13:54:40.342Z,96738.19
2022-09-17T13:57:11.082Z,96732.69
2022-09-17T13:59:37.917Z,96732.84
2022-09-17T14:02:13.375Z,96722.84
2022-09-17T14:04:40.340Z,96713.84
2022-09-17T14:07:22.193Z,96708.25
2022-09-17T14:09:56.066Z,96706.22
2022-09-17T14:12:41.199Z,96701.25
2022-09-17T14:15:26.429Z,96693.44
2022-09-17T14:17:52.919Z,96687.19
2022-09-17T14:20:21.375Z,96699.09
2022-09-17T14:23:03.470Z,96695.41
2022-09-17T14:25:46.353Z,96695.09
2022-09-17T14:28:39.090Z,96680.22
2022-09-17T14:31:11.916Z,96682.41
2022-09-17T14:33:39.549Z,96689.09
2022-09-17T14:36:10.491Z,96681.53
2022-09-17T14:38:37.290Z,96672.75
2022-09-17T14:41:06.363Z,96672.78
2022-09-17T14:43:35.668Z,96674.50
2022-09-17T14:46:04.125Z,96674.56
2022-09-17T14:48:32.172Z,96676.25
2022-09-17T14:51:16.945Z,96669.13
2022-09-17T14:53:44.067Z,96671.63
2022-09-17T14:56:19.410Z,96669.06
2022-09-17T14:58:47.982Z,96672.00
2022-09-17T15:01:32.608Z,96677.06
2022-09-17T15:04:14.232Z,96680.31
2022-09-17T15:06:41.473Z,96675.75
2022-09-17T15:09:34.006Z,96680.59
2022-09-17T15:12:01.289Z,96683.06
2022-09-17T15:14:29.137Z,96682.41
2022-09-17T15:16:57.956Z,96685.91
2022-09-17T15:19:33.490Z,96681.53
2022-09-17T15:22:04.777Z,96684.59
2022-09-17T15:24:38.854Z,96679.03
2022-09-17T15:27:18.439Z,96681.38
2022-09-17T15:29:46.854Z,96678.59
2022-09-17T15:32:14.117Z,96679.84
2022-09-17T15:34:41.114Z,96677.31
2022-09-17T15:37:18.177Z,96673.84
2022-09-17T15:39:50.785Z,96676.91
2022-09-17T15:42:20.426Z,96677.75
2022-09-17T15:44:47.087Z,96685.66
2022-09-17T15:47:39.746Z,96683.53
2022-09-17T15:50:17.129Z,96689.59
2022-09-17T15:52:43.923Z,96692.75
2022-09-17T15:55:32.120Z,96700.66
2022-09-17T15:57:59.630Z,96702.38
2022-09-17T16:00:26.168Z,96704.47
2022-09-17T16:02:52.962Z,96702.13
2022-09-17T16:05:25.498Z,96695.75
2022-09-17T16:07:52.250Z,96698.75
2022-09-17T16:10:19.290Z,96689.41
2022-09-17T16:12:49.009Z,96696.50
2022-09-17T16:15:17.425Z,96698.25
2022-09-17T16:17:44.654Z,96691.16
2022-09-17T16:20:16.910Z,96698.66
2022-09-17T16:22:43.835Z,96710.38
2022-09-17T16:25:11.291Z,96709.09
2022-09-17T16:27:46.237Z,96709.97
2022-09-17T16:30:15.078Z,96710.63
2022-09-17T16:32:41.590Z,96708.22
2022-09-17T16:35:09.140Z,96704.97
2022-09-17T16:37:35.635Z,96711.38
2022-09-17T16:40:02.330Z,96720.34
2022-09-17T16:42:32.347Z,96716.97
2022-09-17T16:45:00.166Z,96721.31
2022-09-17T16:47:26.565Z,96731.44
2022-09-17T16:49:52.969Z,96728.53
2022-09-17T16:52:19.590Z,96744.28
2022-09-17T16:54:45.990Z,96745.28
2022-09-17T16:57:12.421Z,96744.13
2022-09-17T16:59:38.906Z,96747.97
2022-09-17T17:02:05.600Z,96753.00
2022-09-17T17:04:32.049Z,96752.38
2022-09-17T17:06:58.510Z,96754.94
2022-09-17T17:09:25.045Z,96748.09
2022-09-17T17:11:51.810Z,96751.53
2022-09-17T17:14:19.046Z,96755.03
2022-09-17T17:16:45.558Z,96756.81
2022-09-17T17:19:12.097Z,96756.31
2022-09-17T17:21:38.806Z,96759.22
2022-09-17T17:24:06.713Z,96767.44
2022-09-17T17:26:33.822Z,96773.59
2022-09-17T17:29:00.350Z,96770.03
2022-09-17T17:31:26.920Z,96774.03
2022-09-17T17:33:53.443Z,96780.97
2022-09-17T17:36:19.847Z,96785.50
2022-09-17T17:38:46.377Z,96782.91
2022-09-17T17:41:14.102Z,96785.00
2022-09-17T17:43:41.049Z,96788.50
2022-09-17T17:46:08.624Z,96795.19
2022-09-17T17:48:35.367Z,96794.44
2022-09-17T17:51:04.815Z,96799.00
2022-09-17T17:53:31.975Z,96799.41
2022-09-17T17:56:06.478Z,96805.56
2022-09-17T17:58:33.282Z,96815.31
2022-09-17T18:00:59.890Z,96810.94
2022-09-17T18:03:26.366Z,96812.81
2022-09-17T18:05:53.689Z,96814.31
2022-09-17T18:08:20.251Z,96815.59
2022-09-17T18:10:56.917Z,96823.53
2022-09-17T18:13:23.877Z,96824.09
2022-09-17T18:15:51.873Z,96828.47
2022-09-17T18:18:18.287Z,96837.50
2022-09-17T18:20:44.721Z,96838.16
2022-09-17T18:23:11.150Z,96843.97
2022-09-17T18:25:37.574Z,96850.84
2022-09-17T18:28:04.047Z,96854.88
2022-09-17T18:30:32.186Z,96856.97
2022-09-17T18:32:58.612Z,96861.13
2022-09-17T18:35:25.054Z,96876.69
2022-09-17T18:37:51.461Z,96873.09
2022-09-17T18:40:17.994Z,96870.41
2022-09-17T18:42:44.433Z,96869.84
2022-09-17T18:45:11.046Z,96875.00
2022-09-17T18:47:37.498Z,96868.25
2022-09-17T18:50:04.057Z,96875.25
2022-09-17T18:52:30.553Z,96879.06
2022-09-17T18:54:56.982Z,96886.81
2022-09-17T18:57:23.497Z,96875.47
2022-09-17T18:59:50.073Z,96887.84
2022-09-17T19:02:16.512Z,96878.22
2022-09-17T19:04:43.171Z,96880.03
2022-09-17T19:07:09.694Z,96873.13
2022-09-17T19:09:36.166Z,96879.81
2022-09-17T19:12:02.703Z,96881.75
2022-09-17T19:14:29.127Z,96878.72
2022-09-17T19:16:55.548Z,96884.47
2022-09-17T19:19:21.976Z,96881.25
2022-09-17T19:21:51.519Z,96887.16
2022-09-17T19:24:17.989Z,96895.97
2022-09-17T19:26:48.808Z,96897.13
2022-09-17T19:29:17.206Z,96905.25
2022-09-17T19:31:43.691Z,96910.22
2022-09-17T19:34:10.208Z,96914.44
2022-09-17T19:36:36.737Z,96915.53
2022-09-17T19:39:03.227Z,96915.53
2022-09-17T19:41:31.958Z,96919.06
2022-09-17T19:43:58.536Z,96922.38
2022-09-17T19:46:25.998Z,96928.00
2022-09-17T19:48:53.745Z,96924.81
2022-09-17T19:51:20.927Z,96934.34
2022-09-17T19:53:47.482Z,96931.25
2022-09-17T19:56:15.149Z,96930.66
2022-09-17T19:58:41.922Z,96925.38
2022-09-17T20:01:08.442Z,96925.09
2022-09-17T20:03:34.859Z,96926.16
2022-09-17T20:06:02.551Z,96939.41
2022-09-17T20:08:29.138Z,96928.94
2022-09-17T20:10:55.651Z,96929.66
2022-09-17T20:13:22.501Z,96916.41
2022-09-17T20:15:49.004Z,96911.34
2022-09-17T20:18:18.620Z,96909.19
2022-09-17T20:20:47.049Z,96909.56
2022-09-17T20:23:13.469Z,96924.63
2022-09-17T20:25:40.011Z,96921.28
2022-09-17T20:28:06.572Z,96922.44
2022-09-17T20:30:32.982Z,96935.59
2022-09-17T20:32:59.430Z,96935.97
2022-09-17T20:35:25.832Z,96949.94
2022-09-17T20:40:38.762Z,96951.16
2022-09-17T20:43:05.344Z,96954.00
2022-09-17T20:45:31.756Z,96951.28
2022-09-17T20:47:58.170Z,96953.97
2022-09-17T20:50:24.669Z,96947.91
2022-09-17T20:52:51.193Z,96960.72
2022-09-17T20:55:17.918Z,96962.78
2022-09-17T20:57:44.689Z,96961.25
2022-09-17T21:00:19.308Z,96962.09
2022-09-17T21:02:50.576Z,96968.47
2022-09-17T21:05:19.950Z,96973.00
2022-09-17T21:07:46.363Z,96980.63
2022-09-17T21:10:13.507Z,96979.31
2022-09-17T21:12:40.026Z,96989.94
2022-09-17T21:15:06.624Z,96989.72
2022-09-17T21:17:33.932Z,96998.53
2022-09-17T21:20:00.432Z,96999.91
2022-09-17T21:22:26.917Z,96994.63
2022-09-17T21:24:53.414Z,97001.72
2022-09-17T21:27:19.851Z,97001.47
2022-09-17T21:29:46.263Z,97009.59
2022-09-17T21:32:12.667Z,97017.88
2022-09-17T21:34:39.126Z,97013.63
2022-09-17T21:37:06.432Z,97009.63
2022-09-17T21:39:35.009Z,97006.09
2022-09-17T21:42:01.650Z,97009.66
2022-09-17T21:44:28.129Z,97007.91
2022-09-17T21:46:57.553Z,97004.88
2022-09-17T21:49:24.971Z,97004.41
2022-09-17T21:51:51.518Z,97011.97
2022-09-17T21:54:18.045Z,97013.00
2022-09-17T21:56:45.092Z,97006.22
2022-09-17T21:59:12.502Z,97004.53
2022-09-17T22:01:40.878Z,96997.13
2022-09-17T22:04:13.074Z,97008.38
2022-09-17T22:06:40.425Z,97018.03
2022-09-17T22:09:08.261Z,97019.72
2022-09-17T22:11:36.207Z,97027.81
2022-09-17T22:14:18.899Z,97019.72
2022-09-17T22:16:46.851Z,97018.72
2022-09-17T22:19:14.832Z,97019.03
2022-09-17T22:21:47.206Z,97023.75
2022-09-17T22:24:14.743Z,97025.13
2022-09-17T22:26:43.510Z,97025.44
2022-09-17T22:29:14.839Z,97025.13
2022-09-17T22:31:41.354Z,97021.25
2022-09-17T22:34:08.804Z,97010.97
2022-09-17T22:36:35.249Z,97010.00
2022-09-17T22:39:01.902Z,97004.94
2022-09-17T22:41:29.486Z,97004.09
2022-09-17T22:43:57.595Z,96999.88
2022-09-17T22:46:28.804Z,96995.53
2022-09-17T22:48:55.761Z,96991.97
2022-09-17T22:51:22.835Z,96991.81
2022-09-17T22:53:49.389Z,96993.16
2022-09-17T22:56:17.211Z,96992.47
2022-09-17T22:58:44.010Z,96986.91
2022-09-17T23:01:12.348Z,96984.94
2022-09-17T23:03:39.831Z,96980.69
2022-09-17T23:06:07.915Z,96982.00
2022-09-17T23:08:35.077Z,96975.31
2022-09-17T23:11:01.916Z,96976.63
2022-09-17T23:13:29.486Z,96974.56
2022-09-17T23:16:06.344Z,96976.91
2022-09-17T23:18:33.266Z,96984.13
2022-09-17T23:21:01.138Z,96987.25
2022-09-17T23:23:27.871Z,96985.19
2022-09-17T23:25:54.930Z,96983.72
2022-09-17T23:28:21.874Z,96979.47
2022-09-17T23:30:48.358Z,96983.50
2022-09-17T23:33:14.982Z,96976.09
2022-09-17T23:35:41.387Z,96972.75
2022-09-17T23:38:07.822Z,96983.88
2022-09-17T23:40:34.521Z,96981.03
2022-09-17T23:43:01.036Z,96973.09
2022-09-17T23:45:27.483Z,96977.75
2022-09-17T23:47:53.922Z,96975.03
2022-09-17T23:50:20.391Z,96987.22
2022-09-17T23:52:46.874Z,96979.84
2022-09-17T23:55:13.317Z,96984.06
2022-09-17T23:57:39.782Z,96984.19
